KMG weather

Public forecast

Using degrees Celsius for public forecast. Weather courtesy of forecast.io.

Current aviation weather report (METAR) for Kunming Changshui International Airport

Retrieved 2020/08/13 23:00 UTC (40 minutes ago):

ZPPP 132300Z 21002MPS 9999 SCT023 OVC040 17/17 Q1018 NOSIG

Aviation forecast (TAF) for Kunming Changshui International Airport

Retrieved 2020/08/13 18:00 UTC (6 hours ago):

TAF ZPPP 131505Z 1318/1418 22004MPS 6000 SCT004 SCT020 BKN040 TX23/1408Z TN16/1323Z